Time;durP1;ratioP1;P1;durP2;ratioP2;P2;SDS_P1;SDS_P2;PMS_P1;PMS_P2;Temp;Humidity;BMP_temperature;BMP_pressure;BME280_temperature;BME280_humidity;BME280_pressure;Samples;Min_cycle;Max_cycle;Signal;HPM_P1;HPM_P2
2022/07/09 00:01:58;;;;;;;4.40;4.00;;;;;;;17.02;77.39;94732.06;5092791;28;20433;-73
2022/07/09 00:04:23;;;;;;;5.35;4.07;;;;;;;16.98;77.95;94732.38;5076028;28;20034;-73
2022/07/09 00:06:49;;;;;;;5.10;3.90;;;;;;;17.01;77.77;94728.63;5111097;28;20127;-73
2022/07/09 00:09:14;;;;;;;4.40;4.00;;;;;;;16.97;77.44;94729.94;5109798;28;20480;-73
2022/07/09 00:11:40;;;;;;;4.47;3.72;;;;;;;16.94;77.30;94717.97;5109783;28;20045;-73
2022/07/09 00:14:05;;;;;;;5.28;4.15;;;;;;;16.98;77.29;94724.53;5109681;28;20390;-73
2022/07/09 00:16:30;;;;;;;6.38;3.97;;;;;;;17.01;77.93;94730.44;5111046;28;20100;-73
2022/07/09 00:18:56;;;;;;;4.85;4.28;;;;;;;17.04;77.80;94727.47;5092622;28;20042;-73
2022/07/09 00:21:21;;;;;;;5.35;4.20;;;;;;;17.00;77.88;94727.00;5092765;28;20493;-73
2022/07/09 00:23:47;;;;;;;5.40;4.30;;;;;;;16.98;78.00;94724.53;5109746;28;20435;-73
2022/07/09 00:26:12;;;;;;;5.07;4.57;;;;;;;17.04;77.57;94714.34;5109568;28;20028;-73
2022/07/09 00:28:38;;;;;;;4.57;4.18;;;;;;;17.12;77.62;94719.56;5109592;28;20031;-73
2022/07/09 00:31:03;;;;;;;5.25;4.07;;;;;;;17.04;77.33;94709.09;5109509;28;20064;-73
2022/07/09 00:33:29;;;;;;;5.13;4.13;;;;;;;17.06;77.05;94704.50;5109674;28;20039;-73
2022/07/09 00:35:54;;;;;;;4.72;4.13;;;;;;;17.07;76.85;94704.31;5109562;28;20039;-73
2022/07/09 00:38:19;;;;;;;7.10;4.35;;;;;;;17.09;76.79;94698.91;5109619;28;20030;-73
2022/07/09 00:40:45;;;;;;;5.32;4.03;;;;;;;17.17;76.27;94704.13;5111141;28;20032;-73
2022/07/09 00:43:21;;;;;;;4.85;4.18;;;;;;;17.10;76.59;94690.03;5110719;28;20039;-73
2022/07/09 00:45:47;;;;;;;4.75;4.20;;;;;;;17.14;77.17;94699.22;5113151;28;20463;-73
2022/07/09 00:48:13;;;;;;;6.28;4.47;;;;;;;17.16;77.07;94699.84;5096392;28;20062;-73
2022/07/09 00:50:38;;;;;;;5.63;4.40;;;;;;;17.16;76.63;94686.72;5096041;28;20547;-72
2022/07/09 00:53:04;;;;;;;6.13;4.38;;;;;;;17.22;76.91;94690.47;5113253;28;20047;-73
2022/07/09 00:55:29;;;;;;;5.07;4.57;;;;;;;17.21;76.78;94689.66;5113248;28;20035;-73
2022/07/09 00:57:55;;;;;;;5.57;4.82;;;;;;;17.13;77.12;94681.81;5114346;28;20036;-73
2022/07/09 01:00:20;;;;;;;8.32;5.18;;;;;;;17.17;77.27;94691.00;5096158;28;20031;-73
2022/07/09 01:02:47;;;;;;;5.68;5.18;;;;;;;17.15;77.27;94683.28;5112966;28;20059;-73
2022/07/09 01:05:13;;;;;;;6.70;5.35;;;;;;;17.12;77.54;94675.75;5096274;28;20024;-73
2022/07/09 01:07:38;;;;;;;7.43;5.78;;;;;;;17.13;77.71;94684.44;5112809;28;20085;-73
2022/07/09 01:10:04;;;;;;;6.10;5.55;;;;;;;17.20;77.59;94675.72;5112832;28;20036;-73
2022/07/09 01:12:29;;;;;;;5.78;5.20;;;;;;;17.27;77.27;94681.09;5095914;28;20039;-73
2022/07/09 01:14:55;;;;;;;6.32;5.63;;;;;;;17.28;77.90;94680.13;5095711;28;20019;-73
2022/07/09 01:17:20;;;;;;;6.25;5.60;;;;;;;17.29;78.05;94679.13;5114027;28;20035;-73
2022/07/09 01:19:46;;;;;;;7.60;6.30;;;;;;;17.24;77.67;94678.00;5113709;28;20405;-73
2022/07/09 01:22:11;;;;;;;6.35;5.85;;;;;;;17.25;77.47;94669.97;5112577;28;20023;-73
2022/07/09 01:24:37;;;;;;;6.10;5.60;;;;;;;17.26;77.41;94678.66;5095554;28;20032;-73
2022/07/09 01:27:02;;;;;;;6.10;5.50;;;;;;;17.29;77.74;94673.88;5112593;28;20036;-73
2022/07/09 01:29:28;;;;;;;6.28;5.40;;;;;;;17.18;77.89;94666.38;5078535;28;20122;-73
2022/07/09 01:31:53;;;;;;;7.20;5.70;;;;;;;17.27;77.76;94670.59;5112407;28;20040;-73
2022/07/09 01:34:19;;;;;;;6.70;5.25;;;;;;;17.27;77.79;94672.41;5112275;28;20036;-73
2022/07/09 01:36:44;;;;;;;5.43;4.80;;;;;;;17.32;77.70;94673.53;5112296;28;20042;-73
2022/07/09 01:39:10;;;;;;;5.25;4.75;;;;;;;17.29;77.37;94667.81;5113626;28;20373;-73
2022/07/09 01:41:35;;;;;;;6.03;4.90;;;;;;;17.30;77.73;94675.53;5112319;28;20032;-73
2022/07/09 01:44:01;;;;;;;5.03;4.60;;;;;;;17.30;77.29;94658.94;5112243;28;20439;-73
2022/07/09 01:46:26;;;;;;;5.93;4.75;;;;;;;17.32;77.10;94662.22;5095339;28;20035;-73
2022/07/09 01:48:52;;;;;;;5.10;4.60;;;;;;;17.26;77.03;94663.72;5095083;28;20104;-73
2022/07/09 01:51:17;;;;;;;6.30;4.57;;;;;;;17.18;77.01;94672.44;5078016;28;20520;-73
2022/07/09 01:53:45;;;;;;;5.72;4.85;;;;;;;17.02;77.17;94663.84;5111809;28;20507;-73
2022/07/09 01:56:11;;;;;;;6.43;4.60;;;;;;;16.89;77.65;94662.56;5095295;28;20031;-73
2022/07/09 01:58:37;;;;;;;6.07;4.68;;;;;;;16.84;78.20;94664.06;5078296;28;20126;-73
2022/07/09 02:01:02;;;;;;;5.45;4.95;;;;;;;16.75;78.63;94661.44;5095055;28;20036;-73
2022/07/09 02:03:28;;;;;;;6.57;5.13;;;;;;;16.75;78.66;94668.50;5111891;28;20034;-73
2022/07/09 02:05:53;;;;;;;9.88;4.55;;;;;;;16.75;78.94;94674.56;5078041;28;20085;-73
2022/07/09 02:08:19;;;;;;;5.10;4.60;;;;;;;16.78;79.13;94670.00;5111759;28;20032;-73
2022/07/09 02:10:45;;;;;;;5.25;4.45;;;;;;;16.81;78.80;94667.03;5094732;28;20035;-73
2022/07/09 02:13:12;;;;;;;5.13;4.60;;;;;;;16.84;78.09;94670.13;5095179;28;20031;-73
2022/07/09 02:15:37;;;;;;;6.50;4.93;;;;;;;16.73;78.50;94670.47;5113198;28;20039;-73
2022/07/09 02:18:04;;;;;;;6.70;5.05;;;;;;;16.64;78.77;94671.47;5094480;28;20026;-73
2022/07/09 02:20:29;;;;;;;6.88;4.97;;;;;;;16.60;78.99;94672.78;5078074;28;20381;-73
2022/07/09 02:22:55;;;;;;;5.72;4.80;;;;;;;16.43;79.12;94667.56;5111540;28;20045;-72
2022/07/09 02:25:20;;;;;;;5.95;5.35;;;;;;;16.38;80.08;94675.13;5094483;28;20036;-73
2022/07/09 02:27:46;;;;;;;11.48;5.43;;;;;;;16.34;80.24;94670.38;5077437;28;20036;-73
2022/07/09 02:30:11;;;;;;;5.78;5.00;;;;;;;16.39;80.10;94679.38;5094056;28;20031;-73
2022/07/09 02:32:38;;;;;;;5.47;4.90;;;;;;;16.42;79.58;94671.19;5112517;28;20042;-73
2022/07/09 02:35:04;;;;;;;4.93;4.43;;;;;;;16.49;79.36;94685.28;5111267;28;20023;-73
2022/07/09 02:37:29;;;;;;;5.72;5.10;;;;;;;16.51;79.16;94685.91;5094095;28;20032;-73
2022/07/09 02:39:55;;;;;;;5.88;4.90;;;;;;;16.43;79.19;94675.41;5111128;28;20386;-73
2022/07/09 02:42:20;;;;;;;5.03;4.45;;;;;;;16.61;79.15;94693.59;5112338;28;20065;-73
2022/07/09 02:44:46;;;;;;;8.23;4.55;;;;;;;16.63;78.51;94696.03;5112428;27;20031;-73
2022/07/09 02:47:12;;;;;;;6.10;3.92;;;;;;;16.59;78.86;94681.63;5112210;28;20023;-73
2022/07/09 02:49:37;;;;;;;4.90;4.40;;;;;;;16.53;78.97;94694.44;5093789;28;20111;-73
2022/07/09 02:52:03;;;;;;;4.68;4.20;;;;;;;16.54;78.39;94687.38;5111160;28;20024;-72
2022/07/09 02:54:28;;;;;;;4.35;3.95;;;;;;;16.60;78.78;94704.25;5093986;28;20520;-73
2022/07/09 02:56:54;;;;;;;5.22;4.55;;;;;;;16.48;79.48;94696.72;5111998;28;20386;-73
2022/07/09 02:59:20;;;;;;;4.90;4.40;;;;;;;16.37;79.35;94694.44;5076851;28;20085;-73
2022/07/09 03:01:46;;;;;;;5.05;3.92;;;;;;;16.31;79.73;94700.34;5111918;28;20051;-73
2022/07/09 03:04:12;;;;;;;5.28;4.35;;;;;;;16.29;80.02;94707.56;5093796;28;20035;-72
2022/07/09 03:06:37;;;;;;;4.20;3.80;;;;;;;16.32;79.87;94699.34;5093172;28;20031;-73
2022/07/09 03:09:03;;;;;;;4.85;4.38;;;;;;;16.24;79.10;94696.75;5111737;28;20035;-73
2022/07/09 03:11:29;;;;;;;4.28;3.55;;;;;;;16.31;79.08;94693.31;5076659;28;20062;-73
2022/07/09 03:13:54;;;;;;;4.53;3.85;;;;;;;16.23;79.75;94680.19;5110376;28;20027;-73
2022/07/09 03:16:19;;;;;;;4.80;3.95;;;;;;;16.34;79.35;94699.22;5110804;28;20035;-73
2022/07/09 03:18:45;;;;;;;4.35;3.95;;;;;;;16.34;79.16;94697.41;5111615;28;20023;-73
2022/07/09 03:21:11;;;;;;;4.40;3.90;;;;;;;16.29;79.54;94691.81;5110639;28;20036;-73
2022/07/09 03:23:37;;;;;;;4.13;3.72;;;;;;;16.29;79.65;94691.81;5110384;28;20023;-73
2022/07/09 03:26:03;;;;;;;4.57;3.60;;;;;;;16.42;79.55;94705.25;5093270;28;20089;-73
2022/07/09 03:28:29;;;;;;;4.43;3.75;;;;;;;16.40;79.15;94696.72;5110228;28;20038;-73
2022/07/09 03:30:55;;;;;;;4.45;3.50;;;;;;;16.42;78.59;94700.00;5110140;28;20032;-73
2022/07/09 03:33:20;;;;;;;4.70;3.67;;;;;;;16.46;78.78;94693.44;5111786;28;20538;-73
2022/07/09 03:35:46;;;;;;;4.03;3.60;;;;;;;16.47;78.76;94694.28;5111825;28;20032;-73
2022/07/09 03:38:11;;;;;;;4.65;3.88;;;;;;;16.39;79.18;94695.09;5093297;28;20035;-73
2022/07/09 03:40:36;;;;;;;4.72;3.67;;;;;;;16.46;78.62;94698.69;5110288;28;20477;-73
2022/07/09 03:43:02;;;;;;;4.68;3.72;;;;;;;16.44;78.21;94684.94;5110037;28;20398;-73
2022/07/09 03:45:27;;;;;;;5.70;3.50;;;;;;;16.54;78.39;94692.63;5110241;28;20027;-73
2022/07/09 03:47:53;;;;;;;3.92;3.47;;;;;;;16.55;78.25;94696.91;5093018;28;20080;-73
2022/07/09 03:50:18;;;;;;;3.85;3.55;;;;;;;16.53;78.30;94691.00;5111116;28;20044;-73
2022/07/09 03:52:44;;;;;;;4.20;3.80;;;;;;;16.50;78.72;94693.94;5092998;28;20042;-74
2022/07/09 03:55:09;;;;;;;4.20;3.80;;;;;;;16.42;78.97;94694.78;5111571;28;20054;-73
2022/07/09 03:57:35;;;;;;;6.03;3.70;;;;;;;16.43;79.35;94692.97;5110283;28;20473;-72
2022/07/09 04:00:00;;;;;;;4.22;3.67;;;;;;;16.40;79.17;94693.28;5110078;28;20542;-73
2022/07/09 04:02:26;;;;;;;4.13;3.38;;;;;;;16.48;79.07;94694.09;5093042;28;20031;-73
2022/07/09 04:04:51;;;;;;;4.35;3.53;;;;;;;16.52;78.87;94695.44;5092998;28;20031;-73
2022/07/09 04:07:16;;;;;;;3.58;3.28;;;;;;;16.59;78.80;94698.19;5111096;28;20089;-74
2022/07/09 04:09:42;;;;;;;4.13;3.67;;;;;;;16.62;79.27;94702.28;5111203;28;20023;-73
2022/07/09 04:12:08;;;;;;;3.88;3.47;;;;;;;16.65;79.35;94696.69;5109674;28;20036;-72
2022/07/09 04:14:33;;;;;;;4.55;3.75;;;;;;;16.68;78.84;94696.38;5109820;28;20036;-73
2022/07/09 04:16:59;;;;;;;4.28;3.88;;;;;;;16.72;79.15;94705.56;5093674;28;20043;-73
2022/07/09 04:19:24;;;;;;;4.68;3.80;;;;;;;16.70;78.62;94705.72;5113770;28;20105;-73
2022/07/09 04:21:50;;;;;;;5.10;3.60;;;;;;;16.61;78.62;94705.91;5114134;28;20570;-73
2022/07/09 04:24:15;;;;;;;5.10;3.67;;;;;;;16.69;78.55;94711.94;5096629;28;20416;-73
2022/07/09 04:26:42;;;;;;;4.00;3.60;;;;;;;16.65;79.23;94707.19;5113803;28;20036;-73
2022/07/09 04:29:07;;;;;;;5.15;3.80;;;;;;;16.72;79.27;94714.22;5113628;28;20051;-73
2022/07/09 04:31:32;;;;;;;5.80;3.85;;;;;;;16.78;79.32;94720.66;5096584;28;20097;-73
2022/07/09 04:33:58;;;;;;;4.47;4.07;;;;;;;16.79;78.98;94724.09;5096395;28;20024;-73
2022/07/09 04:36:23;;;;;;;4.40;4.00;;;;;;;16.81;78.63;94711.63;5114832;28;20038;-73
2022/07/09 04:38:49;;;;;;;4.75;4.18;;;;;;;16.92;78.44;94711.28;5114670;28;20454;-73
2022/07/09 04:41:14;;;;;;;6.18;4.00;;;;;;;16.97;78.17;94717.66;5113409;28;20039;-73
2022/07/09 04:43:40;;;;;;;5.55;4.28;;;;;;;16.81;78.28;94707.19;5079368;28;20036;-73
2022/07/09 04:46:05;;;;;;;4.50;4.10;;;;;;;16.78;78.35;94707.53;5096275;28;20044;-73
2022/07/09 04:48:31;;;;;;;4.40;4.00;;;;;;;16.77;78.13;94711.16;5096339;28;20484;-73
2022/07/09 04:50:56;;;;;;;4.47;3.90;;;;;;;16.82;78.05;94711.44;5096091;28;20063;-73
2022/07/09 04:53:22;;;;;;;5.78;4.28;;;;;;;16.90;77.91;94718.47;5114750;28;20020;-73
2022/07/09 04:55:48;;;;;;;3.83;3.42;;;;;;;16.96;77.54;94710.75;5113028;28;20493;-73
2022/07/09 04:58:13;;;;;;;6.13;4.05;;;;;;;17.00;78.07;94705.19;5113177;28;20080;-73
2022/07/09 05:00:38;;;;;;;4.40;3.97;;;;;;;17.10;78.29;94708.41;5113252;28;20401;-73
2022/07/09 05:03:04;;;;;;;4.35;3.85;;;;;;;17.16;77.60;94705.09;5096101;28;20042;-73
2022/07/09 05:05:29;;;;;;;5.22;4.10;;;;;;;17.14;76.65;94704.47;5113035;28;20032;-73
2022/07/09 05:07:55;;;;;;;6.22;3.60;;;;;;;17.09;77.23;94704.97;5114211;28;20035;-73
2022/07/09 05:10:20;;;;;;;4.38;3.83;;;;;;;17.16;77.51;94713.81;5113878;28;20031;-73
2022/07/09 05:12:46;;;;;;;4.22;3.78;;;;;;;17.18;76.50;94705.75;5078938;28;20073;-73
2022/07/09 05:15:12;;;;;;;4.47;4.07;;;;;;;17.18;77.02;94711.00;5112922;28;20041;-73
2022/07/09 05:17:38;;;;;;;3.85;3.55;;;;;;;17.19;75.82;94723.16;5112792;28;20023;-74
2022/07/09 05:20:04;;;;;;;5.78;4.20;;;;;;;17.16;76.24;94720.84;5095779;28;20461;-73
2022/07/09 05:22:32;;;;;;;5.45;3.88;;;;;;;17.15;75.97;94721.84;5095887;28;20032;-73
2022/07/09 05:24:58;;;;;;;4.53;3.88;;;;;;;17.25;76.46;94725.09;5112451;28;20089;-73
2022/07/09 05:27:23;;;;;;;5.38;4.00;;;;;;;17.31;76.45;94723.59;5112650;28;20040;-73
2022/07/09 05:29:48;;;;;;;4.20;3.80;;;;;;;17.39;76.12;94729.63;5113010;28;20036;-73
2022/07/09 05:32:14;;;;;;;6.78;4.00;;;;;;;17.40;76.00;94739.13;5112457;28;20035;-73
2022/07/09 05:34:39;;;;;;;4.40;4.00;;;;;;;17.30;76.00;94730.66;5112453;28;20040;-73
2022/07/09 05:37:05;;;;;;;4.50;4.10;;;;;;;17.35;76.28;94738.81;5113593;28;20042;-73
2022/07/09 05:39:31;;;;;;;4.43;4.03;;;;;;;17.39;75.89;94739.31;5095341;28;20481;-74
2022/07/09 05:41:56;;;;;;;4.93;4.28;;;;;;;17.39;76.08;94740.13;5113757;28;20104;-73
2022/07/09 05:44:22;;;;;;;4.60;4.00;;;;;;;17.48;76.08;94746.16;5112271;28;20501;-73
2022/07/09 05:46:48;;;;;;;4.45;4.05;;;;;;;17.54;75.54;94747.28;5112187;28;20032;-73
2022/07/09 05:49:13;;;;;;;5.70;4.53;;;;;;;17.57;75.77;94746.94;5113183;28;20023;-73
2022/07/09 05:51:39;;;;;;;4.25;3.85;;;;;;;17.63;76.11;94754.97;5095037;28;20043;-73
2022/07/09 05:54:04;;;;;;;4.78;4.25;;;;;;;17.70;76.04;94752.47;5112070;28;20514;-73
2022/07/09 05:56:30;;;;;;;4.10;3.70;;;;;;;17.65;74.62;94741.66;5094951;28;20038;-73
2022/07/09 05:58:55;;;;;;;3.88;3.40;;;;;;;17.69;73.87;94747.38;5094770;28;20477;-73
2022/07/09 06:01:20;;;;;;;4.03;3.63;;;;;;;17.72;74.08;94754.91;5111951;28;20061;-73
2022/07/09 06:03:47;;;;;;;4.22;3.83;;;;;;;17.76;74.42;94748.34;5113089;28;20027;-73
2022/07/09 06:06:12;;;;;;;3.55;3.15;;;;;;;17.74;73.84;94750.31;5111760;28;20134;-73
2022/07/09 06:08:37;;;;;;;6.60;3.25;;;;;;;17.68;74.08;94751.81;5094638;28;20028;-73
2022/07/09 06:11:03;;;;;;;3.50;3.20;;;;;;;17.65;74.33;94745.09;5112759;28;20031;-73
2022/07/09 06:13:29;;;;;;;6.35;3.08;;;;;;;17.61;74.57;94750.88;5094826;28;20035;-73
2022/07/09 06:15:55;;;;;;;4.00;3.28;;;;;;;17.62;74.98;94745.44;5077706;28;20113;-73
2022/07/09 06:18:21;;;;;;;4.53;3.10;;;;;;;17.66;73.90;94753.78;5112946;28;20031;-74
2022/07/09 06:20:47;;;;;;;4.05;3.30;;;;;;;17.67;74.71;94750.19;5094924;28;20498;-73
2022/07/09 06:23:12;;;;;;;3.20;2.90;;;;;;;17.71;74.97;94753.28;5111594;28;20042;-73
2022/07/09 06:25:38;;;;;;;3.40;3.10;;;;;;;17.73;74.75;94746.88;5113063;28;20491;-73
2022/07/09 06:28:04;;;;;;;3.45;3.15;;;;;;;17.67;75.78;94744.94;5094797;28;20115;-73
2022/07/09 06:30:30;;;;;;;3.45;3.15;;;;;;;17.73;75.76;94751.31;5112852;27;20115;-72
2022/07/09 06:32:56;;;;;;;3.97;2.85;;;;;;;17.64;73.96;94750.53;5112494;28;20054;-73
2022/07/09 06:35:21;;;;;;;3.20;2.90;;;;;;;17.76;74.16;94757.03;5112768;28;20473;-73
2022/07/09 06:37:47;;;;;;;3.45;2.50;;;;;;;17.68;73.28;94746.56;5111277;28;20032;-73
2022/07/09 06:40:13;;;;;;;3.15;2.85;;;;;;;17.70;73.78;94759.53;5112059;28;20028;-73
2022/07/09 06:42:38;;;;;;;3.33;2.90;;;;;;;17.64;72.99;94761.03;5110819;28;20034;-73
2022/07/09 06:45:04;;;;;;;2.90;2.60;;;;;;;17.61;73.67;94761.38;5094027;28;20031;-73
2022/07/09 06:47:30;;;;;;;2.97;2.67;;;;;;;17.64;74.36;94769.75;5112550;28;20063;-74
2022/07/09 06:49:55;;;;;;;3.35;2.92;;;;;;;17.68;74.56;94761.50;5110788;28;20048;-73
2022/07/09 06:52:21;;;;;;;3.53;2.83;;;;;;;17.71;73.95;94767.22;5110920;28;20080;-73
2022/07/09 06:54:46;;;;;;;3.33;2.97;;;;;;;17.64;73.52;94756.59;5111008;28;20076;-73
2022/07/09 06:57:13;;;;;;;4.05;2.97;;;;;;;17.63;73.51;94767.25;5110950;28;20417;-73
2022/07/09 06:59:39;;;;;;;3.80;2.70;;;;;;;17.57;74.03;94760.06;5093990;28;20040;-73
2022/07/09 07:02:04;;;;;;;3.47;3.17;;;;;;;17.69;73.90;94766.59;5112240;28;20571;-73
2022/07/09 07:04:30;;;;;;;3.35;2.70;;;;;;;17.68;73.73;94767.56;5110835;28;20409;-73
2022/07/09 07:06:55;;;;;;;5.53;2.95;;;;;;;17.70;73.65;94765.59;5110692;28;20028;-73
2022/07/09 07:09:21;;;;;;;3.92;2.63;;;;;;;17.49;73.61;94752.22;5111947;28;20027;-73
2022/07/09 07:11:48;;;;;;;3.50;2.90;;;;;;;17.66;72.45;94769.53;5110349;28;20039;-73
2022/07/09 07:14:14;;;;;;;3.78;2.85;;;;;;;17.73;73.03;94770.50;5111784;28;20023;-73
2022/07/09 07:16:40;;;;;;;3.20;2.70;;;;;;;17.75;73.53;94765.91;5110391;28;20072;-73
2022/07/09 07:19:05;;;;;;;3.40;2.85;;;;;;;17.68;72.91;94751.81;5111659;28;20031;-73
2022/07/09 07:21:31;;;;;;;3.30;2.92;;;;;;;17.75;73.30;94763.28;5110744;28;20389;-73
2022/07/09 07:23:56;;;;;;;3.55;3.13;;;;;;;17.82;73.71;94760.81;5110306;28;20035;-73
2022/07/09 07:26:21;;;;;;;4.75;2.83;;;;;;;17.85;73.84;94758.63;5076539;28;20039;-73
2022/07/09 07:28:48;;;;;;;3.30;3.00;;;;;;;17.85;73.30;94766.53;5093397;28;20484;-73
2022/07/09 07:31:14;;;;;;;4.00;3.30;;;;;;;17.81;72.94;94756.56;5093258;28;20035;-73
2022/07/09 07:33:40;;;;;;;3.65;3.25;;;;;;;17.91;73.49;94765.00;5093267;28;20525;-73
2022/07/09 07:36:06;;;;;;;3.20;2.90;;;;;;;17.95;73.66;94762.88;5111377;28;20066;-73
2022/07/09 07:38:32;;;;;;;4.32;3.10;;;;;;;18.00;73.46;94755.31;5111327;28;20103;-73
2022/07/09 07:40:57;;;;;;;3.90;2.97;;;;;;;18.08;73.47;94760.50;5093061;28;20032;-73
2022/07/09 07:43:23;;;;;;;3.90;3.05;;;;;;;18.06;73.43;94746.72;5111409;28;20024;-73
2022/07/09 07:45:48;;;;;;;3.78;3.05;;;;;;;18.12;72.85;94753.91;5111729;28;20469;-73
2022/07/09 07:48:14;;;;;;;3.45;3.10;;;;;;;18.20;72.05;94766.16;5110083;28;20034;-73
2022/07/09 07:50:39;;;;;;;4.43;2.85;;;;;;;18.21;71.67;94767.78;5111146;28;20488;-73
2022/07/09 07:53:07;;;;;;;3.60;3.30;;;;;;;18.21;72.15;94763.34;5109780;28;20489;-73
2022/07/09 07:55:33;;;;;;;3.92;3.40;;;;;;;18.13;71.35;94763.41;5110162;28;20043;-73
2022/07/09 07:57:59;;;;;;;3.63;3.03;;;;;;;18.21;70.99;94767.78;5093037;28;20027;-73
2022/07/09 08:00:24;;;;;;;5.28;3.30;;;;;;;18.12;71.15;94745.19;5109974;28;20032;-73
2022/07/09 08:02:50;;;;;;;3.50;3.17;;;;;;;18.23;71.29;94756.13;5092942;28;20031;-73
2022/07/09 08:05:15;;;;;;;3.95;3.58;;;;;;;18.27;71.97;94762.66;5111359;28;20040;-73
2022/07/09 08:07:40;;;;;;;4.15;3.22;;;;;;;18.40;72.44;94759.44;5111417;28;20036;-73
2022/07/09 08:10:06;;;;;;;6.38;3.40;;;;;;;18.34;69.88;94752.25;5109903;28;20495;-73
2022/07/09 08:12:32;;;;;;;4.28;3.80;;;;;;;18.39;70.83;94749.13;5111405;28;20027;-73
2022/07/09 08:14:57;;;;;;;3.80;3.40;;;;;;;18.47;71.19;94756.91;5092968;28;20035;-73
2022/07/09 08:17:22;;;;;;;4.00;3.50;;;;;;;18.54;69.89;94758.66;5109825;28;20023;-73
2022/07/09 08:19:48;;;;;;;4.25;3.30;;;;;;;18.49;69.63;94752.31;5109844;28;20031;-73
2022/07/09 08:22:13;;;;;;;3.88;3.50;;;;;;;18.61;70.60;94763.22;5092846;28;20087;-73
2022/07/09 08:24:39;;;;;;;3.78;3.30;;;;;;;18.62;69.59;94762.22;5109780;28;20028;-73
2022/07/09 08:27:04;;;;;;;3.75;3.40;;;;;;;18.64;70.22;94762.88;5110936;28;20036;-73
2022/07/09 08:29:30;;;;;;;3.95;3.53;;;;;;;18.66;69.75;94756.41;5109598;28;20028;-73
2022/07/09 08:31:55;;;;;;;4.35;3.95;;;;;;;18.67;69.91;94744.91;5109634;28;20028;-73
2022/07/09 08:34:21;;;;;;;4.88;3.78;;;;;;;18.70;69.14;94757.72;5109692;28;20024;-73
2022/07/09 08:36:47;;;;;;;3.53;3.22;;;;;;;18.78;68.07;94756.84;5092756;28;20020;-73
2022/07/09 08:39:12;;;;;;;5.55;3.50;;;;;;;18.76;68.81;94753.59;5092625;28;20459;-73
2022/07/09 08:41:38;;;;;;;5.43;3.33;;;;;;;18.81;68.47;94758.31;5092661;28;20104;-73
2022/07/09 08:44:04;;;;;;;4.25;3.85;;;;;;;18.87;69.51;94765.50;5109428;28;20057;-73
2022/07/09 08:46:31;;;;;;;5.20;4.13;;;;;;;18.74;68.60;94751.13;5111058;28;20050;-73
2022/07/09 08:48:57;;;;;;;4.00;3.60;;;;;;;18.87;69.34;94768.13;5110730;28;20039;-73
2022/07/09 08:51:23;;;;;;;5.15;3.90;;;;;;;18.96;68.84;94761.78;5072450;28;20067;-73
2022/07/09 08:53:48;;;;;;;5.03;3.88;;;;;;;18.92;69.02;94758.69;5089141;28;20758;-73
2022/07/09 08:56:14;;;;;;;3.95;3.55;;;;;;;19.02;67.86;94765.50;5072263;28;20059;-74
2022/07/09 08:58:40;;;;;;;3.58;3.28;;;;;;;18.93;68.24;94764.78;5089091;28;20528;-73
2022/07/09 09:01:06;;;;;;;4.20;3.78;;;;;;;18.99;68.51;94764.03;5055457;28;20032;-75
2022/07/09 09:03:32;;;;;;;3.90;3.50;;;;;;;19.02;67.75;94762.88;5089093;28;20095;-72
2022/07/09 09:06:08;;;;;;;4.82;3.70;;;;;;;19.07;68.24;94763.97;5092577;28;20620;-72
2022/07/09 09:08:43;;;;;;;5.90;3.83;;;;;;;19.14;68.42;94770.16;5092542;28;20028;-72
2022/07/09 09:11:22;;;;;;;4.03;3.42;;;;;;;19.13;68.04;94760.59;5075664;28;20020;-72
2022/07/09 09:13:48;;;;;;;3.85;3.45;;;;;;;19.13;68.23;94763.25;5092609;28;20032;-72
2022/07/09 09:16:15;;;;;;;3.83;3.53;;;;;;;19.15;68.46;94766.50;5075470;28;20028;-72
2022/07/09 09:18:45;;;;;;;4.63;4.13;;;;;;;19.24;68.64;94774.31;5092368;28;20027;-72
2022/07/09 09:21:11;;;;;;;4.05;3.60;;;;;;;19.27;68.66;94777.41;5076021;28;20028;-72
2022/07/09 09:23:47;;;;;;;4.78;3.95;;;;;;;19.24;68.37;94774.31;5075526;28;20028;-72
2022/07/09 09:26:23;;;;;;;5.00;4.50;;;;;;;19.17;70.07;94766.34;5093411;28;20024;-72
2022/07/09 09:28:51;;;;;;;4.70;4.07;;;;;;;19.20;68.91;94769.44;5060044;28;20020;-72
2022/07/09 09:31:18;;;;;;;4.65;4.25;;;;;;;19.12;69.73;94764.25;5093352;28;20047;-72
2022/07/09 09:33:44;;;;;;;4.47;4.07;;;;;;;19.10;70.95;94770.69;5092095;28;20031;-72
2022/07/09 09:36:09;;;;;;;5.03;3.92;;;;;;;18.98;69.96;94757.16;5092021;28;20035;-72
2022/07/09 09:38:35;;;;;;;7.50;4.47;;;;;;;18.99;70.26;94761.41;5075033;28;20035;-72
2022/07/09 09:41:00;;;;;;;5.70;4.63;;;;;;;18.97;69.77;94763.41;5091821;28;20020;-72
2022/07/09 09:43:25;;;;;;;5.35;4.50;;;;;;;18.87;70.60;94762.84;5091908;28;20024;-72
2022/07/09 09:45:51;;;;;;;5.13;4.72;;;;;;;18.85;70.90;94752.50;5075147;28;20035;-72
2022/07/09 09:48:18;;;;;;;5.13;4.28;;;;;;;18.97;71.64;94764.25;5075051;28;20035;-72
2022/07/09 09:50:43;;;;;;;5.53;5.03;;;;;;;19.06;71.85;94754.44;5106517;28;20052;-73
2022/07/09 09:53:09;;;;;;;6.80;5.13;;;;;;;19.07;71.43;94756.06;5095004;28;20035;-72
2022/07/09 09:55:35;;;;;;;5.40;4.82;;;;;;;19.16;71.64;94760.25;5095194;28;20042;-72
2022/07/09 09:58:00;;;;;;;5.60;4.90;;;;;;;19.25;71.23;94754.88;5078296;28;20031;-72
2022/07/09 10:00:26;;;;;;;5.47;4.95;;;;;;;19.35;70.89;94750.16;5095074;28;20048;-72
2022/07/09 10:02:52;;;;;;;6.15;5.47;;;;;;;19.43;71.37;94752.72;5111917;28;20038;-73
2022/07/09 10:05:17;;;;;;;6.63;5.88;;;;;;;19.51;73.15;94759.72;5095028;28;20034;-73
2022/07/09 10:07:43;;;;;;;7.05;6.40;;;;;;;19.63;71.61;94752.97;5094928;28;20089;-72
2022/07/09 10:10:15;;;;;;;6.80;6.20;;;;;;;19.62;65.54;94759.25;5111823;28;20020;-72
2022/07/09 10:12:41;;;;;;;7.25;6.60;;;;;;;19.68;65.77;94760.34;5111664;28;20031;-72
2022/07/09 10:15:22;;;;;;;7.25;6.60;;;;;;;19.74;66.00;94754.34;5113014;28;20027;-72
2022/07/09 10:17:47;;;;;;;9.98;7.30;;;;;;;19.76;65.70;94754.97;5113493;28;20027;-72
2022/07/09 10:20:13;;;;;;;7.13;6.43;;;;;;;19.74;65.47;94757.78;5113130;28;20039;-73
2022/07/09 10:22:40;;;;;;;6.65;6.05;;;;;;;19.66;65.64;94747.34;5094461;28;20031;-72
2022/07/09 10:25:06;;;;;;;9.20;6.28;;;;;;;19.62;64.37;94754.78;5111535;28;20080;-73
2022/07/09 10:27:44;;;;;;;7.15;6.00;;;;;;;19.47;63.84;94759.22;5111449;28;20019;-73
2022/07/09 10:30:25;;;;;;;5.75;5.18;;;;;;;19.42;64.53;94762.44;5111544;28;20039;-72
2022/07/09 10:33:20;;;;;;;;;;;;;;;19.46;65.97;94757.59;5111746;28;20054;-73
2022/07/09 10:35:47;;;;;;;6.03;5.50;;;;;;;19.42;65.63;94761.63;5107234;28;19919;-72
2022/07/09 10:38:14;;;;;;;7.32;5.80;;;;;;;19.37;65.54;94758.72;5111599;28;20023;-73
2022/07/09 10:40:41;;;;;;;6.18;5.05;;;;;;;19.31;64.29;94762.91;5094381;28;20481;-73
2022/07/09 10:43:06;;;;;;;5.85;5.35;;;;;;;19.29;64.89;94750.91;5111139;28;20096;-73
2022/07/09 10:45:35;;;;;;;7.00;5.80;;;;;;;19.37;65.90;94763.97;5094283;28;20544;-73
2022/07/09 10:48:01;;;;;;;6.03;5.13;;;;;;;19.30;65.07;94761.25;5112255;28;20070;-72
2022/07/09 10:50:29;;;;;;;5.22;4.63;;;;;;;19.29;64.90;94758.81;5110798;28;20063;-73
2022/07/09 10:52:55;;;;;;;5.90;5.38;;;;;;;19.23;64.62;94756.91;5094223;28;20489;-73
2022/07/09 10:55:25;;;;;;;5.70;5.10;;;;;;;19.25;64.63;94766.25;5111038;28;20036;-72
2022/07/09 10:57:50;;;;;;;5.70;5.20;;;;;;;19.14;63.56;94764.88;5076923;28;20024;-73
2022/07/09 11:00:16;;;;;;;7.15;5.90;;;;;;;19.09;63.78;94763.78;5112407;28;20032;-73
2022/07/09 11:02:55;;;;;;;5.72;5.22;;;;;;;19.06;64.20;94761.53;5093948;28;20568;-72
2022/07/09 11:05:21;;;;;;;5.60;5.00;;;;;;;19.07;63.90;94771.88;5110875;28;20032;-72
2022/07/09 11:08:06;;;;;;;5.05;4.65;;;;;;;19.01;63.20;94763.88;5093769;28;20115;-73
2022/07/09 11:10:35;;;;;;;7.35;4.63;;;;;;;19.07;63.82;94760.53;5110710;28;20085;-73
2022/07/09 11:13:00;;;;;;;3.60;3.30;;;;;;;19.02;62.76;94761.06;5093873;28;20028;-72
2022/07/09 11:15:27;;;;;;;3.20;2.80;;;;;;;19.02;62.62;94771.56;5110727;28;20047;-73
2022/07/09 11:17:56;;;;;;;3.83;2.55;;;;;;;19.07;63.34;94763.97;5110487;28;20024;-73
2022/07/09 11:20:22;;;;;;;7.50;3.25;;;;;;;19.13;64.10;94772.94;5112043;28;20034;-72
2022/07/09 11:22:48;;;;;;;5.47;3.33;;;;;;;19.11;65.77;94781.06;5076553;28;20024;-72
2022/07/09 11:25:15;;;;;;;3.30;3.00;;;;;;;19.20;65.65;94772.06;5093572;28;20089;-73
2022/07/09 11:27:40;;;;;;;3.55;2.92;;;;;;;19.29;66.08;94767.53;5076115;28;20031;-72
2022/07/09 11:30:06;;;;;;;4.03;2.97;;;;;;;19.34;65.58;94773.06;5110354;28;20031;-72